Local Weather Ingen bokad jour idag Sunday 17th of October
Flygplats METAR TAF
Airport METAR TAF
ESSL - Linköping171920Z AUTO 29004KT 9999 NCD 03/M01 Q1015=171430Z 1715/1717 28010KT 9999 SCT040=
ESCF - Malmen171920Z AUTO 26005KT 9999 NCD 03/M01 Q1015=NO VALID TAF PUBLISHED
ESSP - Norrköping171920Z AUTO 29007KT 9999 NCD 03/M02 Q1015=NO VALID TAF PUBLISHED
ESGJ - Jönköping171920Z AUTO 00000KT 9999 NCD M01/M02 Q1016=NO VALID TAF PUBLISHED
ESKN - Skavsta171920Z 28005KT CAVOK 03/M01 Q1014=171730Z 1718/1818 27006KT CAVOK=
ESSV - Visby171920Z AUTO 32012KT 9999 FEW042/// 09/M00 Q1013=171730Z 1718/1720 31007KT 9999 SCT020=
ESGG - Göteborg171920Z 34003KT CAVOK 04/M01 Q1017=171730Z 1718/1818 31004KT CAVOK PROB40 1800/1807 1000 BCFG BKN002=
FLEET STATUS
Flygplan Tid till service Tid till flygstopp Flygtid Landningar
Aircraft To service To stop Total time Landings
SE-IUD50.1 h55.1 h12 499.9 h25 615 st.
SE-KIT29.0 h39.0 h12 671.0 h24 922 st.
(1) DME display syns delvis inte i dagsljus
SE-KMH36.8 h46.8 h16 663.2 h61 951 st.
(1) Höger däck har slitage på en liten yta
SE-LRL6.4 h11.4 h1 393.6 h2 645 st.
(1) litet axiellt glapp i lagret för vänster skevroder
SE-MEB34.3 h44.3 h1 765.7 h5 377 st.
SE-MEKN/AN/A3 799.0 h3 805 st.
(1) Stor deviation på kompassen (~-50 grader)
(2) Båda brytkopplingarna är trasiga, byt båda två då koplingarna ofta går isär.
(3) Glappkontakt radio och interkom vänster sida.
PPR
Ankomst Avgång Flygplan Namn Bränsle
Arrival Departure Aircraft Name Fuel
17/10 08:001/10 09:00SE-IHVGunnar Krantz100LL
17/10 10:0031/10 11:00SE-MKTHåkan JohanssonInget
17/10 11:001/11 11:00SEMKTThomas CarlssonInget
17/10 11:001/11 11:00SEMKTThomas CarlssonInget
NOTAM
>>> ESSL/LINKOPING/SAAB <<<
>>> ESSP/NORRKOPING/KUNGSANGEN <<<
>>> ESCF/LINKOPING/MALMEN <<<